MSC Sinfonia — H8XH — position and weather

sailwx.info

Track history (hours):
 
Tides and Currents Weather Stations Pressure Air Temp Water Temp Dewpoint Dewpoint Depression Visibility Wind Speed Wind Dir Waves Ship Positions

MSC Sinfonia

Last reported at 2017-May-24 03:32 UTC. Time now 2017-May-25 03:02 UTC.
Position N 37°38' E 016°18'.

Length 251 m; draft 6.8 m.

Type: Passenger vessel. MMSI: 356715971.

Date/timePositionNaut miles runAvg speedWind from/ knotsBaromVisibWave heightAir tempDewpointWater temp
2017-May-24 03:32N 37°38' E 016°18'015.4
2017-May-24 03:30N 37°38' E 016°17'915.9
2017-May-24 02:56N 37°31' E 016°10'816.2
2017-May-24 02:25N 37°24' E 016°04'716.2
2017-May-24 02:00N 37°19' E 015°59'1216.1
2017-May-24 01:15N 37°10' E 015°49'815.8
2017-May-24 00:46N 37°04' E 015°43'415.8
2017-May-24 00:30N 37°00' E 015°40'815.7
2017-May-24 00:00N 36°54' E 015°33'816.0
2017-May-23 23:30N 36°48' E 015°27'816.2
2017-May-23 23:00N 36°42' E 015°21'1416.0
2017-May-23 22:09N 36°31' E 015°11'1616.4
2017-May-23 21:11N 36°19' E 014°58'316.6
2017-May-23 21:00N 36°17' E 014°55'816.5
2017-May-23 20:30N 36°11' E 014°48'816.4
2017-May-23 20:00N 36°04' E 014°42'816.2
2017-May-23 19:30N 35°58' E 014°36'6 0.5
2017-May-23 08:29N 35°54' E 014°31'2 4.0
2017-May-23 08:00N 35°55' E 014°33'611.1
2017-May-23 07:30N 36°00' E 014°31'612.6
2017-May-23 07:00N 36°06' E 014°29'612.6
2017-May-23 06:30N 36°12' E 014°26'612.2
2017-May-23 06:00N 36°18' E 014°24'613.1
2017-May-23 05:30N 36°24' E 014°21'713.4
2017-May-23 05:00N 36°31' E 014°18'714.1
2017-May-23 04:31N 36°37' E 014°14'917.0
2017-May-23 04:00N 36°42' E 014°06'917.2
2017-May-23 03:31N 36°47' E 013°57'917.2
2017-May-23 03:00N 36°52' E 013°48'917.0
2017-May-23 02:30N 36°57' E 013°39'816.8
2017-May-23 02:01N 37°02' E 013°31'1216.8
2017-May-23 01:18N 37°08' E 013°19'2416.9
2017-May-22 23:55N 37°20' E 012°53'716.9
2017-May-22 23:30N 37°23' E 012°45'816.9
2017-May-22 23:00N 37°26' E 012°35'917.4
2017-May-22 22:31N 37°30' E 012°26'917.3
2017-May-22 22:00N 37°34' E 012°16'917.0
2017-May-22 21:30N 37°38' E 012°06'1117.0
2017-May-22 20:51N 37°46' E 011°56'617.1
2017-May-22 20:30N 37°49' E 011°50'817.0
2017-May-22 20:00N 37°54' E 011°42'917.3
2017-May-22 19:30N 37°60' E 011°33'917.4
2017-May-22 19:00N 38°04' E 011°24'917.0
2017-May-22 18:30N 38°09' E 011°15'816.7
2017-May-22 18:00N 38°14' E 011°06'1616.6
2017-May-22 17:02N 38°22' E 010°48'116.6
2017-May-22 17:00N 38°22' E 010°47'5617.2
2017-May-22 13:43N 38°21' E 009°35'2517.6
2017-May-22 12:18N 38°21' E 009°03'717.5
2017-May-22 11:52N 38°21' E 008°54'917.5
2017-May-22 11:23N 38°20' E 008°43'817.7
2017-May-22 10:56N 38°20' E 008°33'918.1
2017-May-22 10:27N 38°20' E 008°22'918.6
2017-May-22 09:58N 38°19' E 008°10'1019.1
2017-May-22 09:28N 38°19' E 007°58'1019.2
2017-May-22 08:58N 38°19' E 007°46'919.2
2017-May-22 08:30N 38°19' E 007°35'1118.7
2017-May-22 07:54N 38°18' E 007°20'918.3
2017-May-22 07:24N 38°18' E 007°09'718.1
2017-May-22 07:00N 38°18' E 006°59'918.1
2017-May-22 06:30N 38°18' E 006°48'918.2
2017-May-22 05:59N 38°17' E 006°36'1018.4
2017-May-22 05:27N 38°17' E 006°24'1018.5
2017-May-22 04:56N 38°17' E 006°11'1818.2
2017-May-22 03:57N 38°16' E 005°48'8218.2
2017-May-21 23:27N 38°14' E 004°04'1318.2
2017-May-21 22:43N 38°14' E 003°47'1718.1
2017-May-21 21:47N 38°14' E 003°26'516.0
2017-May-21 21:29N 38°13' E 003°20'816.4
2017-May-21 21:00N 38°13' E 003°09'1318.7
2017-May-21 20:18N 38°13' E 002°53'618.8
2017-May-21 20:00N 38°13' E 002°46'918.2
2017-May-21 19:30N 38°10' E 002°34'11218.6
2017-May-21 13:29N 37°22' E 000°27'1018.3
2017-May-21 12:56N 37°18' E 000°15'26918.0
2017-May-20 22:00N 36°01' W 005°06'918.7
2017-May-20 21:30N 36°01' W 005°18'816.1
2017-May-20 21:00N 36°08' W 005°23'1 3.0
2017-May-20 20:30N 36°09' W 005°22'0 0.0
2017-May-20 17:45N 36°09' W 005°22'0 0.0
2017-May-20 17:30N 36°09' W 005°22'0 0.0
2017-May-20 17:00N 36°09' W 005°22'0 0.0
2017-May-20 16:30N 36°09' W 005°22'0 0.0
2017-May-20 15:57N 36°09' W 005°22'0 0.0
2017-May-20 15:30N 36°09' W 005°22'0 0.0
2017-May-20 15:00N 36°09' W 005°22'0 0.0
2017-May-20 14:24N 36°09' W 005°22'0 0.0
2017-May-20 13:31N 36°09' W 005°22'3 6.2
2017-May-20 13:00N 36°06' W 005°22'5 9.4
2017-May-20 12:31N 36°01' W 005°23'510.1
2017-May-20 12:01N 35°57' W 005°27'7413.8
2017-May-20 06:39N 35°27' W 006°49'17417.7
2017-May-19 20:47N 33°22' W 009°18'40416.1
2017-May-18 19:37N 28°36' W 014°50'216.7
2017-May-18 19:29N 28°34' W 014°52'816.6
2017-May-18 19:01N 28°29' W 014°58'816.6
2017-May-18 18:30N 28°23' W 015°05'816.5
2017-May-18 18:01N 28°17' W 015°12'816.6
2017-May-18 17:30N 28°11' W 015°18'714.1
2017-May-18 17:00N 28°07' W 015°25'1 1.6
2017-May-18 16:22N 28°08' W 015°25'0 0.0
2017-May-18 15:55N 28°08' W 015°25'0 0.0
2017-May-18 15:25N 28°08' W 015°25'0 0.0
2017-May-18 14:55N 28°08' W 015°25'0 0.0
2017-May-18 13:55N 28°08' W 015°25'0 0.0
2017-May-18 13:25N 28°08' W 015°25'0 0.0
2017-May-18 12:58N 28°08' W 015°25'0 0.0
2017-May-18 12:28N 28°08' W 015°25'0 0.0
2017-May-18 11:58N 28°08' W 015°25'0 0.0
2017-May-18 11:28N 28°08' W 015°25'0 0.0
2017-May-18 10:58N 28°08' W 015°25'0 0.0
2017-May-18 10:28N 28°08' W 015°25'0 0.0
2017-May-18 09:46N 28°08' W 015°25'0 0.0
2017-May-18 09:28N 28°08' W 015°25'0 0.0
2017-May-18 08:58N 28°08' W 015°25'0 0.0
2017-May-18 08:28N 28°08' W 015°25'0 0.0
2017-May-18 07:58N 28°08' W 015°25'0 0.0
2017-May-18 07:28N 28°08' W 015°25'0 0.0
2017-May-18 06:49N 28°08' W 015°25'0 0.1
2017-May-18 06:30N 28°08' W 015°25'0 1.0
2017-May-18 06:00N 28°08' W 015°25'4 8.4
2017-May-18 05:30N 28°05' W 015°22'714.4
2017-May-18 05:00N 27°58' W 015°19'714.2
2017-May-18 04:31N 27°51' W 015°19'611.2
2017-May-18 04:01N 27°46' W 015°20'  
2017-May-15 22:56N 15°48' W 017°35'2316.8
2017-May-15 21:32N 15°25' W 017°35'116.7
2017-May-15 21:28N 15°24' W 017°35'816.7
2017-May-15 21:00N 15°16' W 017°35'2416.6
2017-May-15 19:33N 14°52' W 017°35'416.3
2017-May-15 19:20N 14°48' W 017°35'615.4
2017-May-15 18:57N 14°43' W 017°33'715.6
2017-May-15 18:30N 14°38' W 017°28'5 9.2
2017-May-15 18:00N 14°41' W 017°24'2 2.3
2017-May-15 17:19N 14°40' W 017°26'0 0.0
2017-May-15 16:49N 14°40' W 017°26'0 0.0
2017-May-15 16:19N 14°40' W 017°26'0 0.0
2017-May-15 15:58N 14°40' W 017°26'0 0.0
2017-May-15 15:19N 14°40' W 017°26'0 0.0
2017-May-15 14:52N 14°40' W 017°26'0 0.0
2017-May-15 14:22N 14°40' W 017°26'0 0.0
2017-May-15 13:19N 14°40' W 017°26'0 0.0
2017-May-15 12:55N 14°40' W 017°26'0 0.0
2017-May-15 12:25N 14°40' W 017°26'0 0.0
2017-May-15 11:58N 14°40' W 017°26'0 0.0
2017-May-15 11:28N 14°40' W 017°26'0 0.0
2017-May-15 10:55N 14°40' W 017°26'0 0.0
2017-May-15 10:25N 14°40' W 017°26'0 0.0
2017-May-15 09:55N 14°40' W 017°26'0 0.0
2017-May-15 09:28N 14°40' W 017°26'0 0.0
2017-May-15 08:58N 14°40' W 017°26'0 0.0
2017-May-15 08:28N 14°40' W 017°26'0 0.0
2017-May-15 07:52N 14°40' W 017°26'0 0.0
2017-May-15 07:28N 14°40' W 017°26'0 1.1
2017-May-15 07:00N 14°41' W 017°25'3 5.8
2017-May-15 06:30N 14°39' W 017°23'4511.7
2017-May-15 02:37N 13°54' W 017°24'  
Track history (hours):
 
Tides and Currents Weather Stations Pressure Air Temp Water Temp Dewpoint Dewpoint Depression Visibility Wind Speed Wind Dir Waves Ship Positions

MSC Sinfonia

Last reported at 2017-May-24 03:32 UTC. Time now 2017-May-25 03:02 UTC.
Position N 37°38' E 016°18'.

Length 251 m; draft 6.8 m.

Type: Passenger vessel. MMSI: 356715971.

Date/timePositionNaut miles runAvg speedWind from/ knotsBaromVisibWave heightAir tempDewpointWater temp
2017-May-24 03:32N 37°38' E 016°18'015.4
2017-May-24 03:30N 37°38' E 016°17'915.9
2017-May-24 02:56N 37°31' E 016°10'816.2
2017-May-24 02:25N 37°24' E 016°04'716.2
2017-May-24 02:00N 37°19' E 015°59'1216.1
2017-May-24 01:15N 37°10' E 015°49'815.8
2017-May-24 00:46N 37°04' E 015°43'415.8
2017-May-24 00:30N 37°00' E 015°40'815.7
2017-May-24 00:00N 36°54' E 015°33'816.0
2017-May-23 23:30N 36°48' E 015°27'816.2
2017-May-23 23:00N 36°42' E 015°21'1416.0
2017-May-23 22:09N 36°31' E 015°11'1616.4
2017-May-23 21:11N 36°19' E 014°58'316.6
2017-May-23 21:00N 36°17' E 014°55'816.5
2017-May-23 20:30N 36°11' E 014°48'816.4
2017-May-23 20:00N 36°04' E 014°42'816.2
2017-May-23 19:30N 35°58' E 014°36'6 0.5
2017-May-23 08:29N 35°54' E 014°31'2 4.0
2017-May-23 08:00N 35°55' E 014°33'611.1
2017-May-23 07:30N 36°00' E 014°31'612.6
2017-May-23 07:00N 36°06' E 014°29'612.6
2017-May-23 06:30N 36°12' E 014°26'612.2
2017-May-23 06:00N 36°18' E 014°24'613.1
2017-May-23 05:30N 36°24' E 014°21'713.4
2017-May-23 05:00N 36°31' E 014°18'714.1
2017-May-23 04:31N 36°37' E 014°14'917.0
2017-May-23 04:00N 36°42' E 014°06'917.2
2017-May-23 03:31N 36°47' E 013°57'917.2
2017-May-23 03:00N 36°52' E 013°48'917.0
2017-May-23 02:30N 36°57' E 013°39'816.8
2017-May-23 02:01N 37°02' E 013°31'1216.8
2017-May-23 01:18N 37°08' E 013°19'2416.9
2017-May-22 23:55N 37°20' E 012°53'716.9
2017-May-22 23:30N 37°23' E 012°45'816.9
2017-May-22 23:00N 37°26' E 012°35'917.4
2017-May-22 22:31N 37°30' E 012°26'917.3
2017-May-22 22:00N 37°34' E 012°16'917.0
2017-May-22 21:30N 37°38' E 012°06'1117.0
2017-May-22 20:51N 37°46' E 011°56'617.1
2017-May-22 20:30N 37°49' E 011°50'817.0
2017-May-22 20:00N 37°54' E 011°42'917.3
2017-May-22 19:30N 37°60' E 011°33'917.4
2017-May-22 19:00N 38°04' E 011°24'917.0
2017-May-22 18:30N 38°09' E 011°15'816.7
2017-May-22 18:00N 38°14' E 011°06'1616.6
2017-May-22 17:02N 38°22' E 010°48'116.6
2017-May-22 17:00N 38°22' E 010°47'5617.2
2017-May-22 13:43N 38°21' E 009°35'2517.6
2017-May-22 12:18N 38°21' E 009°03'717.5
2017-May-22 11:52N 38°21' E 008°54'917.5
2017-May-22 11:23N 38°20' E 008°43'817.7
2017-May-22 10:56N 38°20' E 008°33'918.1
2017-May-22 10:27N 38°20' E 008°22'918.6
2017-May-22 09:58N 38°19' E 008°10'1019.1
2017-May-22 09:28N 38°19' E 007°58'1019.2
2017-May-22 08:58N 38°19' E 007°46'919.2
2017-May-22 08:30N 38°19' E 007°35'1118.7
2017-May-22 07:54N 38°18' E 007°20'918.3
2017-May-22 07:24N 38°18' E 007°09'718.1
2017-May-22 07:00N 38°18' E 006°59'918.1
2017-May-22 06:30N 38°18' E 006°48'918.2
2017-May-22 05:59N 38°17' E 006°36'1018.4
2017-May-22 05:27N 38°17' E 006°24'1018.5
2017-May-22 04:56N 38°17' E 006°11'1818.2
2017-May-22 03:57N 38°16' E 005°48'8218.2
2017-May-21 23:27N 38°14' E 004°04'1318.2
2017-May-21 22:43N 38°14' E 003°47'1718.1
2017-May-21 21:47N 38°14' E 003°26'516.0
2017-May-21 21:29N 38°13' E 003°20'816.4
2017-May-21 21:00N 38°13' E 003°09'1318.7
2017-May-21 20:18N 38°13' E 002°53'618.8
2017-May-21 20:00N 38°13' E 002°46'918.2
2017-May-21 19:30N 38°10' E 002°34'11218.6
2017-May-21 13:29N 37°22' E 000°27'1018.3
2017-May-21 12:56N 37°18' E 000°15'26918.0
2017-May-20 22:00N 36°01' W 005°06'918.7
2017-May-20 21:30N 36°01' W 005°18'816.1
2017-May-20 21:00N 36°08' W 005°23'1 3.0
2017-May-20 20:30N 36°09' W 005°22'0 0.0
2017-May-20 17:45N 36°09' W 005°22'0 0.0
2017-May-20 17:30N 36°09' W 005°22'0 0.0
2017-May-20 17:00N 36°09' W 005°22'0 0.0
2017-May-20 16:30N 36°09' W 005°22'0 0.0
2017-May-20 15:57N 36°09' W 005°22'0 0.0
2017-May-20 15:30N 36°09' W 005°22'0 0.0
2017-May-20 15:00N 36°09' W 005°22'0 0.0
2017-May-20 14:24N 36°09' W 005°22'0 0.0
2017-May-20 13:31N 36°09' W 005°22'3 6.2
2017-May-20 13:00N 36°06' W 005°22'5 9.4
2017-May-20 12:31N 36°01' W 005°23'510.1
2017-May-20 12:01N 35°57' W 005°27'7413.8
2017-May-20 06:39N 35°27' W 006°49'17417.7
2017-May-19 20:47N 33°22' W 009°18'40416.1
2017-May-18 19:37N 28°36' W 014°50'216.7
2017-May-18 19:29N 28°34' W 014°52'816.6
2017-May-18 19:01N 28°29' W 014°58'816.6
2017-May-18 18:30N 28°23' W 015°05'816.5
2017-May-18 18:01N 28°17' W 015°12'816.6
2017-May-18 17:30N 28°11' W 015°18'714.1
2017-May-18 17:00N 28°07' W 015°25'1 1.6
2017-May-18 16:22N 28°08' W 015°25'0 0.0
2017-May-18 15:55N 28°08' W 015°25'0 0.0
2017-May-18 15:25N 28°08' W 015°25'0 0.0
2017-May-18 14:55N 28°08' W 015°25'0 0.0
2017-May-18 13:55N 28°08' W 015°25'0 0.0
2017-May-18 13:25N 28°08' W 015°25'0 0.0
2017-May-18 12:58N 28°08' W 015°25'0 0.0
2017-May-18 12:28N 28°08' W 015°25'0 0.0
2017-May-18 11:58N 28°08' W 015°25'0 0.0
2017-May-18 11:28N 28°08' W 015°25'0 0.0
2017-May-18 10:58N 28°08' W 015°25'0 0.0
2017-May-18 10:28N 28°08' W 015°25'0 0.0
2017-May-18 09:46N 28°08' W 015°25'0 0.0
2017-May-18 09:28N 28°08' W 015°25'0 0.0
2017-May-18 08:58N 28°08' W 015°25'0 0.0
2017-May-18 08:28N 28°08' W 015°25'0 0.0
2017-May-18 07:58N 28°08' W 015°25'0 0.0
2017-May-18 07:28N 28°08' W 015°25'0 0.0
2017-May-18 06:49N 28°08' W 015°25'0 0.1
2017-May-18 06:30N 28°08' W 015°25'0 1.0
2017-May-18 06:00N 28°08' W 015°25'4 8.4
2017-May-18 05:30N 28°05' W 015°22'714.4
2017-May-18 05:00N 27°58' W 015°19'714.2
2017-May-18 04:31N 27°51' W 015°19'611.2
2017-May-18 04:01N 27°46' W 015°20'  
2017-May-15 22:56N 15°48' W 017°35'2316.8
2017-May-15 21:32N 15°25' W 017°35'116.7
2017-May-15 21:28N 15°24' W 017°35'816.7
2017-May-15 21:00N 15°16' W 017°35'2416.6
2017-May-15 19:33N 14°52' W 017°35'416.3
2017-May-15 19:20N 14°48' W 017°35'615.4
2017-May-15 18:57N 14°43' W 017°33'715.6
2017-May-15 18:30N 14°38' W 017°28'5 9.2
2017-May-15 18:00N 14°41' W 017°24'2 2.3
2017-May-15 17:19N 14°40' W 017°26'0 0.0
2017-May-15 16:49N 14°40' W 017°26'0 0.0
2017-May-15 16:19N 14°40' W 017°26'0 0.0
2017-May-15 15:58N 14°40' W 017°26'0 0.0
2017-May-15 15:19N 14°40' W 017°26'0 0.0
2017-May-15 14:52N 14°40' W 017°26'0 0.0
2017-May-15 14:22N 14°40' W 017°26'0 0.0
2017-May-15 13:19N 14°40' W 017°26'0 0.0
2017-May-15 12:55N 14°40' W 017°26'0 0.0
2017-May-15 12:25N 14°40' W 017°26'0 0.0
2017-May-15 11:58N 14°40' W 017°26'0 0.0
2017-May-15 11:28N 14°40' W 017°26'0 0.0
2017-May-15 10:55N 14°40' W 017°26'0 0.0
2017-May-15 10:25N 14°40' W 017°26'0 0.0
2017-May-15 09:55N 14°40' W 017°26'0 0.0
2017-May-15 09:28N 14°40' W 017°26'0 0.0
2017-May-15 08:58N 14°40' W 017°26'0 0.0
2017-May-15 08:28N 14°40' W 017°26'0 0.0
2017-May-15 07:52N 14°40' W 017°26'0 0.0
2017-May-15 07:28N 14°40' W 017°26'0 1.1
2017-May-15 07:00N 14°41' W 017°25'3 5.8
2017-May-15 06:30N 14°39' W 017°23'4511.7
2017-May-15 02:37N 13°54' W 017°24'  

Dump ship's entire track history